This is the latest recevied weather packets stored in our database for station/object JQ2GLP-13. If no packets are shown the sender has not sent any weather packets the latest 10 day(s).
| Time | Temp. | Humidity | Pressure | Rain* | Wind** | Luminosity | Snow |
|---|---|---|---|---|---|---|---|
| 1777919832 | 11.67° C | 57% | 1008.9 hPa | 0 mm | - | - | - |
| 1777909033 | 13.33° C | 54% | 1006.5 hPa | 0 mm | - | - | - |
| 1777905433 | 13.89° C | 54% | 1006.2 hPa | 0 mm | - | - | - |
| 1777903633 | 13.89° C | 53% | 1006.1 hPa | 0 mm | - | - | - |
| 1777900032 | 14.44° C | 53% | 1005.4 hPa | 0 mm | - | - | - |
| 1777891034 | 15° C | 54% | 1002.8 hPa | 0 mm | - | - | - |
| 1777882033 | 19.44° C | 45% | 999.4 hPa | 0 mm | - | - | - |
| 1777864034 | 23.89° C | 47% | 996.5 hPa | 0 mm | - | - | - |
| 1777862235 | 24.44° C | 51% | 996.6 hPa | 0 mm | - | - | - |
| 1777860434 | 23.89° C | 55% | 996.6 hPa | 0 mm | - | - | - |
| 1777856830 | 19.44° C | 88% | 997 hPa | 0 mm | - | - | - |
| 1777855030 | 18.89° C | 93% | 997.2 hPa | 0 mm | - | - | - |
| 1777842432 | 18.89° C | 94% | 995.4 hPa | 0.25 mm | - | - | - |
| 1777820832 | 17.78° C | 94% | 999.5 hPa | 0 mm | - | - | - |
| 1777819032 | 17.78° C | 94% | 1000.7 hPa | 11.68 mm | - | - | - |
| 1777813633 | 17.22° C | 93% | 1001.8 hPa | 5.08 mm | - | - | - |
| 1777801033 | 17.22° C | 88% | 1003 hPa | 6.1 mm | - | - | - |
| 1777795633 | 18.89° C | 76% | 1003.7 hPa | 1.78 mm | - | - | - |
| 1777792033 | 20° C | 68% | 1004 hPa | 0 mm | - | - | - |
| 1777788433 | 20.56° C | 69% | 1004.2 hPa | 0 mm | - | - | - |
| 1777786635 | 20.56° C | 68% | 1004.4 hPa | 0 mm | - | - | - |
| 1777783035 | 21.11° C | 69% | 1005.3 hPa | 0 mm | - | - | - |
| 1777781235 | 21.67° C | 66% | 1005.7 hPa | 0 mm | - | - | - |
| 1777775835 | 23.33° C | 57% | 1006.6 hPa | 0 mm | - | - | - |
| 1777774034 | 23.33° C | 50% | 1006.8 hPa | 0 mm | - | - | - |
* Rain latest hour (hover to see other rain measurements)
** Current wind speed in m/s (hover to see current wind gust speed)